sensor_id;sensor_type;location;lat;lon;timestamp;pressure;altitude;pressure_sealevel;temperature;humidity
43155;BME280;34212;51.018;13.586;2024-03-08T00:03:31;98355.66;;;4.40;58.16
43155;BME280;34212;51.018;13.586;2024-03-08T00:08:34;98353.63;;;4.32;58.30
43155;BME280;34212;51.018;13.586;2024-03-08T00:13:35;98351.63;;;4.25;58.90
43155;BME280;34212;51.018;13.586;2024-03-08T00:18:37;98357.28;;;4.20;58.66
43155;BME280;34212;51.018;13.586;2024-03-08T00:23:39;98351.91;;;4.10;58.62
43155;BME280;34212;51.018;13.586;2024-03-08T00:28:41;98348.22;;;4.02;58.69
43155;BME280;34212;51.018;13.586;2024-03-08T00:33:42;98357.50;;;3.96;58.41
43155;BME280;34212;51.018;13.586;2024-03-08T00:38:44;98349.94;;;3.91;59.27
43155;BME280;34212;51.018;13.586;2024-03-08T00:43:45;98354.78;;;3.86;59.42
43155;BME280;34212;51.018;13.586;2024-03-08T00:48:49;98341.22;;;3.80;58.96
43155;BME280;34212;51.018;13.586;2024-03-08T00:53:50;98345.06;;;3.76;58.96
43155;BME280;34212;51.018;13.586;2024-03-08T00:58:52;98341.47;;;3.77;59.33
43155;BME280;34212;51.018;13.586;2024-03-08T01:03:54;98335.50;;;3.75;59.06
43155;BME280;34212;51.018;13.586;2024-03-08T01:08:56;98328.53;;;3.74;59.18
43155;BME280;34212;51.018;13.586;2024-03-08T01:13:57;98339.94;;;3.74;59.46
43155;BME280;34212;51.018;13.586;2024-03-08T01:18:59;98323.25;;;3.74;59.24
43155;BME280;34212;51.018;13.586;2024-03-08T01:24:01;98325.19;;;3.72;59.59
43155;BME280;34212;51.018;13.586;2024-03-08T01:29:03;98308.63;;;3.69;59.45
43155;BME280;34212;51.018;13.586;2024-03-08T01:34:04;98306.25;;;3.66;59.93
43155;BME280;34212;51.018;13.586;2024-03-08T01:39:06;98298.47;;;3.65;59.74
43155;BME280;34212;51.018;13.586;2024-03-08T01:44:09;98285.63;;;3.60;59.59
43155;BME280;34212;51.018;13.586;2024-03-08T01:49:11;98280.63;;;3.57;60.22
43155;BME280;34212;51.018;13.586;2024-03-08T01:54:14;98272.25;;;3.52;59.77
43155;BME280;34212;51.018;13.586;2024-03-08T01:59:17;98263.88;;;3.47;60.31
43155;BME280;34212;51.018;13.586;2024-03-08T02:04:18;98269.38;;;3.44;60.04
43155;BME280;34212;51.018;13.586;2024-03-08T02:09:20;98266.03;;;3.42;60.56
43155;BME280;34212;51.018;13.586;2024-03-08T02:14:22;98259.09;;;3.41;59.81
43155;BME280;34212;51.018;13.586;2024-03-08T02:19:23;98250.44;;;3.39;60.08
43155;BME280;34212;51.018;13.586;2024-03-08T02:24:25;98256.81;;;3.36;59.92
43155;BME280;34212;51.018;13.586;2024-03-08T02:29:26;98244.75;;;3.34;60.47
43155;BME280;34212;51.018;13.586;2024-03-08T02:34:28;98248.44;;;3.31;60.58
43155;BME280;34212;51.018;13.586;2024-03-08T02:39:32;98248.69;;;3.28;60.45
43155;BME280;34212;51.018;13.586;2024-03-08T02:44:34;98249.03;;;3.23;60.73
43155;BME280;34212;51.018;13.586;2024-03-08T02:49:36;98245.00;;;3.19;60.98
43155;BME280;34212;51.018;13.586;2024-03-08T02:54:39;98236.59;;;3.14;60.90
43155;BME280;34212;51.018;13.586;2024-03-08T02:59:40;98229.81;;;3.12;60.85
43155;BME280;34212;51.018;13.586;2024-03-08T03:04:42;98227.41;;;3.09;60.75
43155;BME280;34212;51.018;13.586;2024-03-08T03:09:44;98228.50;;;3.06;61.33
43155;BME280;34212;51.018;13.586;2024-03-08T03:14:46;98223.47;;;3.03;61.15
43155;BME280;34212;51.018;13.586;2024-03-08T03:19:48;98225.63;;;2.98;61.07
43155;BME280;34212;51.018;13.586;2024-03-08T03:24:50;98225.88;;;2.95;61.26
43155;BME280;34212;51.018;13.586;2024-03-08T03:29:52;98218.09;;;2.93;60.58
43155;BME280;34212;51.018;13.586;2024-03-08T03:34:54;98224.44;;;2.91;60.71
43155;BME280;34212;51.018;13.586;2024-03-08T03:39:55;98222.78;;;2.90;60.93
43155;BME280;34212;51.018;13.586;2024-03-08T03:44:58;98222.78;;;2.90;61.26
43155;BME280;34212;51.018;13.586;2024-03-08T03:50:00;98212.47;;;2.87;61.12
43155;BME280;34212;51.018;13.586;2024-03-08T03:55:04;98209.94;;;2.85;61.70
43155;BME280;34212;51.018;13.586;2024-03-08T04:00:07;98223.38;;;2.82;61.65
43155;BME280;34212;51.018;13.586;2024-03-08T04:05:17;98209.34;;;2.82;61.73
43155;BME280;34212;51.018;13.586;2024-03-08T04:10:19;98207.69;;;2.81;61.10
43155;BME280;34212;51.018;13.586;2024-03-08T04:15:21;98219.06;;;2.81;61.06
43155;BME280;34212;51.018;13.586;2024-03-08T04:20:22;98204.09;;;2.82;61.25
43155;BME280;34212;51.018;13.586;2024-03-08T04:25:24;98213.91;;;2.80;61.32
43155;BME280;34212;51.018;13.586;2024-03-08T04:30:25;98203.59;;;2.76;61.50
43155;BME280;34212;51.018;13.586;2024-03-08T04:35:29;98201.22;;;2.73;62.06
43155;BME280;34212;51.018;13.586;2024-03-08T04:40:31;98191.66;;;2.72;61.66
43155;BME280;34212;51.018;13.586;2024-03-08T04:45:33;98194.28;;;2.72;62.05
43155;BME280;34212;51.018;13.586;2024-03-08T04:50:35;98183.75;;;2.72;61.62
43155;BME280;34212;51.018;13.586;2024-03-08T04:55:36;98195.94;;;2.73;61.65
43155;BME280;34212;51.018;13.586;2024-03-08T05:00:38;98197.66;;;2.74;62.28
43155;BME280;34212;51.018;13.586;2024-03-08T05:05:40;98197.66;;;2.74;62.20
43155;BME280;34212;51.018;13.586;2024-03-08T05:10:41;98183.75;;;2.72;61.69
43155;BME280;34212;51.018;13.586;2024-03-08T05:15:43;98185.66;;;2.70;62.06
43155;BME280;34212;51.018;13.586;2024-03-08T05:20:45;98182.19;;;2.70;62.34
43155;BME280;34212;51.018;13.586;2024-03-08T05:25:47;98181.47;;;2.68;61.97
43155;BME280;34212;51.018;13.586;2024-03-08T05:30:49;98180.88;;;2.64;62.56
43155;BME280;34212;51.018;13.586;2024-03-08T05:35:50;98165.06;;;2.64;61.86
43155;BME280;34212;51.018;13.586;2024-03-08T05:40:54;98159.81;;;2.64;62.46
43155;BME280;34212;51.018;13.586;2024-03-08T05:45:55;98165.91;;;2.65;62.33
43155;BME280;34212;51.018;13.586;2024-03-08T05:50:57;98152.63;;;2.66;62.59
43155;BME280;34212;51.018;13.586;2024-03-08T05:55:58;98156.00;;;2.68;62.22
43155;BME280;34212;51.018;13.586;2024-03-08T06:01:00;98161.13;;;2.70;62.04
43155;BME280;34212;51.018;13.586;2024-03-08T06:06:02;98165.41;;;2.71;62.65
43155;BME280;34212;51.018;13.586;2024-03-08T06:11:04;98171.41;;;2.73;62.57
43155;BME280;34212;51.018;13.586;2024-03-08T06:16:07;98171.31;;;2.74;62.26
43155;BME280;34212;51.018;13.586;2024-03-08T06:21:09;98167.69;;;2.75;62.12
43155;BME280;34212;51.018;13.586;2024-03-08T06:26:13;98169.13;;;2.80;62.68
43155;BME280;34212;51.018;13.586;2024-03-08T06:31:14;98164.44;;;2.83;62.32
43155;BME280;34212;51.018;13.586;2024-03-08T06:36:16;98165.06;;;2.87;62.43
43155;BME280;34212;51.018;13.586;2024-03-08T06:41:20;98163.84;;;2.91;62.09
43155;BME280;34212;51.018;13.586;2024-03-08T06:46:21;98160.00;;;2.95;62.95
43155;BME280;34212;51.018;13.586;2024-03-08T06:51:23;98162.13;;;3.01;62.08
43155;BME280;34212;51.018;13.586;2024-03-08T06:56:25;98163.31;;;3.08;62.20
43155;BME280;34212;51.018;13.586;2024-03-08T07:01:26;98153.38;;;3.12;63.18
43155;BME280;34212;51.018;13.586;2024-03-08T07:06:29;98153.72;;;3.18;62.69
43155;BME280;34212;51.018;13.586;2024-03-08T07:11:34;98152.25;;;3.26;62.56
43155;BME280;34212;51.018;13.586;2024-03-08T07:16:36;98140.22;;;3.33;62.76
43155;BME280;34212;51.018;13.586;2024-03-08T07:21:37;98140.56;;;3.39;62.88
43155;BME280;34212;51.018;13.586;2024-03-08T07:26:39;98146.19;;;3.46;62.53
43155;BME280;34212;51.018;13.586;2024-03-08T07:31:40;98146.38;;;3.54;62.63
43155;BME280;34212;51.018;13.586;2024-03-08T07:37:00;98146.84;;;3.59;63.16
43155;BME280;34212;51.018;13.586;2024-03-08T07:42:02;98140.78;;;3.68;62.82
43155;BME280;34212;51.018;13.586;2024-03-08T07:47:04;98141.94;;;3.76;62.86
43155;BME280;34212;51.018;13.586;2024-03-08T07:52:05;98132.53;;;3.83;63.41
43155;BME280;34212;51.018;13.586;2024-03-08T07:57:08;98135.13;;;3.94;63.81
43155;BME280;34212;51.018;13.586;2024-03-08T08:02:11;98125.44;;;4.04;63.24
43155;BME280;34212;51.018;13.586;2024-03-08T08:07:13;98124.66;;;4.13;63.57
43155;BME280;34212;51.018;13.586;2024-03-08T08:12:15;98120.28;;;4.24;63.16
43155;BME280;34212;51.018;13.586;2024-03-08T08:17:17;98113.34;;;4.32;63.44
43155;BME280;34212;51.018;13.586;2024-03-08T08:22:19;98113.38;;;4.42;63.70
43155;BME280;34212;51.018;13.586;2024-03-08T08:27:20;98109.94;;;4.51;63.79
43155;BME280;34212;51.018;13.586;2024-03-08T08:32:22;98106.38;;;4.62;63.53
43155;BME280;34212;51.018;13.586;2024-03-08T08:37:24;98110.00;;;4.71;63.59
43155;BME280;34212;51.018;13.586;2024-03-08T08:42:26;98106.56;;;4.80;63.97
43155;BME280;34212;51.018;13.586;2024-03-08T08:47:29;98103.09;;;4.89;63.54
43155;BME280;34212;51.018;13.586;2024-03-08T08:52:31;98092.94;;;4.94;63.52
43155;BME280;34212;51.018;13.586;2024-03-08T08:57:33;98093.34;;;4.99;63.48
43155;BME280;34212;51.018;13.586;2024-03-08T09:02:35;98089.88;;;5.08;63.60
43155;BME280;34212;51.018;13.586;2024-03-08T09:07:37;98092.38;;;5.20;64.00
43155;BME280;34212;51.018;13.586;2024-03-08T09:12:39;98084.16;;;5.32;64.02
43155;BME280;34212;51.018;13.586;2024-03-08T09:17:40;98084.84;;;5.44;63.77
43155;BME280;34212;51.018;13.586;2024-03-08T09:22:44;98074.13;;;5.55;63.41
43155;BME280;34212;51.018;13.586;2024-03-08T09:27:45;98070.47;;;5.66;63.66
43155;BME280;34212;51.018;13.586;2024-03-08T09:32:47;98067.81;;;5.76;63.42
43155;BME280;34212;51.018;13.586;2024-03-08T09:37:49;98061.38;;;5.88;63.67
43155;BME280;34212;51.018;13.586;2024-03-08T09:42:53;98062.78;;;6.02;63.22
43155;BME280;34212;51.018;13.586;2024-03-08T09:47:54;98056.03;;;6.17;63.40
43155;BME280;34212;51.018;13.586;2024-03-08T09:52:56;98060.97;;;6.30;63.13
43155;BME280;34212;51.018;13.586;2024-03-08T09:58:00;98047.53;;;6.41;63.26
43155;BME280;34212;51.018;13.586;2024-03-08T10:03:22;98048.84;;;6.55;63.28
43155;BME280;34212;51.018;13.586;2024-03-08T10:08:23;98038.88;;;6.67;63.01
43155;BME280;34212;51.018;13.586;2024-03-08T10:13:25;98029.44;;;6.82;62.83
43155;BME280;34212;51.018;13.586;2024-03-08T10:18:30;98017.59;;;6.94;62.75
43155;BME280;34212;51.018;13.586;2024-03-08T10:23:34;98015.56;;;7.06;62.66
43155;BME280;34212;51.018;13.586;2024-03-08T10:28:35;98007.69;;;7.14;62.42
43155;BME280;34212;51.018;13.586;2024-03-08T10:33:37;98010.06;;;7.26;61.74
43155;BME280;34212;51.018;13.586;2024-03-08T10:38:41;98011.66;;;7.36;62.16
43155;BME280;34212;51.018;13.586;2024-03-08T10:49:03;97998.88;;;7.58;62.39
43155;BME280;34212;51.018;13.586;2024-03-08T10:54:10;97989.97;;;7.67;62.51
43155;BME280;34212;51.018;13.586;2024-03-08T10:59:13;97996.00;;;7.77;61.49
43155;BME280;34212;51.018;13.586;2024-03-08T11:04:15;97991.72;;;7.84;61.54
43155;BME280;34212;51.018;13.586;2024-03-08T11:09:31;97983.63;;;7.94;61.60
43155;BME280;34212;51.018;13.586;2024-03-08T11:14:55;97981.38;;;8.07;61.62
43155;BME280;34212;51.018;13.586;2024-03-08T11:19:58;97970.44;;;8.19;61.48
43155;BME280;34212;51.018;13.586;2024-03-08T11:25:04;97965.19;;;8.27;60.68
43155;BME280;34212;51.018;13.586;2024-03-08T11:30:11;97957.38;;;8.33;60.56
43155;BME280;34212;51.018;13.586;2024-03-08T11:35:20;97953.09;;;8.41;60.75
43155;BME280;34212;51.018;13.586;2024-03-08T11:40:23;97948.50;;;8.51;61.08
43155;BME280;34212;51.018;13.586;2024-03-08T11:45:25;97942.53;;;8.57;60.68
43155;BME280;34212;51.018;13.586;2024-03-08T11:50:27;97932.22;;;8.62;61.43
43155;BME280;34212;51.018;13.586;2024-03-08T11:55:29;97926.75;;;8.72;60.39
43155;BME280;34212;51.018;13.586;2024-03-08T12:00:31;97923.94;;;8.82;60.53
43155;BME280;34212;51.018;13.586;2024-03-08T12:05:39;97914.31;;;8.89;60.52
43155;BME280;34212;51.018;13.586;2024-03-08T12:10:41;97912.63;;;8.96;60.36
43155;BME280;34212;51.018;13.586;2024-03-08T12:15:43;97900.31;;;9.03;59.81
43155;BME280;34212;51.018;13.586;2024-03-08T12:20:45;97901.81;;;9.14;59.57
43155;BME280;34212;51.018;13.586;2024-03-08T12:25:51;97898.47;;;9.20;58.98
43155;BME280;34212;51.018;13.586;2024-03-08T12:30:52;97886.34;;;9.25;59.29
43155;BME280;34212;51.018;13.586;2024-03-08T12:35:55;97878.50;;;9.32;58.72
43155;BME280;34212;51.018;13.586;2024-03-08T12:41:00;97872.50;;;9.38;58.79
43155;BME280;34212;51.018;13.586;2024-03-08T12:46:02;97860.63;;;9.49;59.03
43155;BME280;34212;51.018;13.586;2024-03-08T12:51:05;97855.94;;;9.59;58.45
43155;BME280;34212;51.018;13.586;2024-03-08T12:56:08;97853.09;;;9.69;58.35
43155;BME280;34212;51.018;13.586;2024-03-08T13:01:10;97854.22;;;9.75;57.77
43155;BME280;34212;51.018;13.586;2024-03-08T13:06:13;97839.16;;;9.90;58.61
43155;BME280;34212;51.018;13.586;2024-03-08T13:11:15;97826.53;;;10.15;57.82
43155;BME280;34212;51.018;13.586;2024-03-08T13:16:16;97822.84;;;11.74;56.07
43155;BME280;34212;51.018;13.586;2024-03-08T13:21:20;97818.75;;;13.56;53.68
43155;BME280;34212;51.018;13.586;2024-03-08T13:26:25;97808.97;;;15.11;51.94
43155;BME280;34212;51.018;13.586;2024-03-08T13:31:31;97806.09;;;16.23;49.73
43155;BME280;34212;51.018;13.586;2024-03-08T13:36:33;97795.38;;;17.04;47.89
43155;BME280;34212;51.018;13.586;2024-03-08T13:41:41;97785.41;;;17.48;46.64
43155;BME280;34212;51.018;13.586;2024-03-08T13:46:43;97780.97;;;17.36;48.36
43155;BME280;34212;51.018;13.586;2024-03-08T13:51:44;97776.84;;;17.33;46.75
43155;BME280;34212;51.018;13.586;2024-03-08T13:56:46;97773.75;;;16.61;47.30
43155;BME280;34212;51.018;13.586;2024-03-08T14:01:48;97767.53;;;15.45;48.07
43155;BME280;34212;51.018;13.586;2024-03-08T14:06:52;97764.75;;;14.41;48.89
43155;BME280;34212;51.018;13.586;2024-03-08T14:12:01;97762.22;;;13.51;49.50
43155;BME280;34212;51.018;13.586;2024-03-08T14:17:07;97760.81;;;12.86;49.91
43155;BME280;34212;51.018;13.586;2024-03-08T14:22:11;97751.53;;;12.32;50.51
43155;BME280;34212;51.018;13.586;2024-03-08T14:27:15;97747.47;;;11.93;50.76
43155;BME280;34212;51.018;13.586;2024-03-08T14:32:19;97749.53;;;11.62;50.99
43155;BME280;34212;51.018;13.586;2024-03-08T14:37:24;97748.50;;;11.41;51.33
43155;BME280;34212;51.018;13.586;2024-03-08T14:42:30;97738.66;;;11.27;51.66
43155;BME280;34212;51.018;13.586;2024-03-08T14:47:32;97735.00;;;11.13;51.75
43155;BME280;34212;51.018;13.586;2024-03-08T14:52:35;97733.34;;;10.97;52.07
43155;BME280;34212;51.018;13.586;2024-03-08T14:57:37;97731.41;;;10.91;52.38
43155;BME280;34212;51.018;13.586;2024-03-08T15:02:41;97723.13;;;10.86;51.88
43155;BME280;34212;51.018;13.586;2024-03-08T15:07:43;97716.13;;;10.85;52.42
43155;BME280;34212;51.018;13.586;2024-03-08T15:12:45;97723.94;;;10.86;52.49
43155;BME280;34212;51.018;13.586;2024-03-08T15:17:52;97718.16;;;10.83;52.46
43155;BME280;34212;51.018;13.586;2024-03-08T15:22:56;97715.69;;;10.81;52.58
43155;BME280;34212;51.018;13.586;2024-03-08T15:28:00;97708.22;;;10.77;52.67
43155;BME280;34212;51.018;13.586;2024-03-08T15:33:05;97703.25;;;10.74;53.17
43155;BME280;34212;51.018;13.586;2024-03-08T15:38:11;97693.97;;;10.70;53.08
43155;BME280;34212;51.018;13.586;2024-03-08T15:43:13;97701.97;;;10.70;52.75
43155;BME280;34212;51.018;13.586;2024-03-08T15:48:17;97700.31;;;10.69;53.18
43155;BME280;34212;51.018;13.586;2024-03-08T15:53:19;97694.03;;;10.61;53.28
43155;BME280;34212;51.018;13.586;2024-03-08T15:58:21;97688.81;;;10.53;53.00
43155;BME280;34212;51.018;13.586;2024-03-08T16:03:22;97688.34;;;10.64;53.22
43155;BME280;34212;51.018;13.586;2024-03-08T16:08:24;97675.47;;;10.53;53.11
43155;BME280;34212;51.018;13.586;2024-03-08T16:13:27;97681.66;;;10.31;53.15
43155;BME280;34212;51.018;13.586;2024-03-08T16:18:28;97679.50;;;10.11;53.01
43155;BME280;34212;51.018;13.586;2024-03-08T16:23:32;97675.69;;;9.91;53.42
43155;BME280;34212;51.018;13.586;2024-03-08T16:28:34;97670.44;;;9.75;53.81
43155;BME280;34212;51.018;13.586;2024-03-08T16:33:43;97670.56;;;9.58;53.78
43155;BME280;34212;51.018;13.586;2024-03-08T16:38:46;97657.38;;;9.42;53.98
43155;BME280;34212;51.018;13.586;2024-03-08T16:43:50;97667.59;;;9.30;54.21
43155;BME280;34212;51.018;13.586;2024-03-08T16:48:51;97665.84;;;9.14;54.01
43155;BME280;34212;51.018;13.586;2024-03-08T16:53:53;97666.56;;;9.00;54.37
43155;BME280;34212;51.018;13.586;2024-03-08T16:58:54;97669.78;;;8.87;54.57
43155;BME280;34212;51.018;13.586;2024-03-08T17:03:56;97661.06;;;8.70;55.06
43155;BME280;34212;51.018;13.586;2024-03-08T17:09:02;97662.41;;;8.58;55.09
43155;BME280;34212;51.018;13.586;2024-03-08T17:14:04;97666.28;;;8.47;55.72
43155;BME280;34212;51.018;13.586;2024-03-08T17:19:06;97669.25;;;8.36;55.92
43155;BME280;34212;51.018;13.586;2024-03-08T17:24:08;97660.47;;;8.27;55.64
43155;BME280;34212;51.018;13.586;2024-03-08T17:29:13;97665.13;;;8.17;55.96
43155;BME280;34212;51.018;13.586;2024-03-08T17:34:15;97662.66;;;8.07;55.99
43155;BME280;34212;51.018;13.586;2024-03-08T17:39:20;97665.16;;;8.01;56.47
43155;BME280;34212;51.018;13.586;2024-03-08T17:44:27;97660.66;;;7.93;56.30
43155;BME280;34212;51.018;13.586;2024-03-08T17:49:33;97662.47;;;7.84;56.78
43155;BME280;34212;51.018;13.586;2024-03-08T17:54:36;97658.00;;;7.77;57.37
43155;BME280;34212;51.018;13.586;2024-03-08T17:59:38;97652.53;;;7.70;57.13
43155;BME280;34212;51.018;13.586;2024-03-08T18:04:39;97654.84;;;7.65;57.69
43155;BME280;34212;51.018;13.586;2024-03-08T18:09:41;97641.41;;;7.58;57.91
43155;BME280;34212;51.018;13.586;2024-03-08T18:14:43;97643.91;;;7.52;57.35
43155;BME280;34212;51.018;13.586;2024-03-08T18:19:45;97637.28;;;7.48;58.08
43155;BME280;34212;51.018;13.586;2024-03-08T18:24:49;97636.94;;;7.43;58.40
43155;BME280;34212;51.018;13.586;2024-03-08T18:29:51;97621.47;;;7.38;58.15
43155;BME280;34212;51.018;13.586;2024-03-08T18:34:53;97629.94;;;7.33;58.72
43155;BME280;34212;51.018;13.586;2024-03-08T18:39:55;97629.59;;;7.28;58.83
43155;BME280;34212;51.018;13.586;2024-03-08T18:44:57;97631.75;;;7.25;58.69
43155;BME280;34212;51.018;13.586;2024-03-08T18:49:59;97631.25;;;7.21;59.07
43155;BME280;34212;51.018;13.586;2024-03-08T18:55:02;97617.63;;;7.16;59.15
43155;BME280;34212;51.018;13.586;2024-03-08T19:00:05;97611.84;;;7.12;59.17
43155;BME280;34212;51.018;13.586;2024-03-08T19:05:14;97610.34;;;7.10;59.22
43155;BME280;34212;51.018;13.586;2024-03-08T19:10:21;97606.03;;;7.09;59.61
43155;BME280;34212;51.018;13.586;2024-03-08T19:15:25;97597.59;;;7.13;59.32
43155;BME280;34212;51.018;13.586;2024-03-08T19:20:28;97601.72;;;7.16;59.85
43155;BME280;34212;51.018;13.586;2024-03-08T19:25:38;97598.44;;;7.14;60.10
43155;BME280;34212;51.018;13.586;2024-03-08T19:30:43;97609.03;;;7.14;60.07
43155;BME280;34212;51.018;13.586;2024-03-08T19:35:45;97599.25;;;7.14;60.35
43155;BME280;34212;51.018;13.586;2024-03-08T19:40:48;97594.63;;;7.25;60.52
43155;BME280;34212;51.018;13.586;2024-03-08T19:45:52;97598.13;;;7.33;60.76
43155;BME280;34212;51.018;13.586;2024-03-08T19:50:56;97590.81;;;7.35;59.99
43155;BME280;34212;51.018;13.586;2024-03-08T19:56:00;97591.47;;;7.37;60.74
43155;BME280;34212;51.018;13.586;2024-03-08T20:01:03;97587.97;;;7.29;60.41
43155;BME280;34212;51.018;13.586;2024-03-08T20:06:05;97589.97;;;7.10;60.40
43155;BME280;34212;51.018;13.586;2024-03-08T20:11:07;97586.78;;;6.99;60.21
43155;BME280;34212;51.018;13.586;2024-03-08T20:16:11;97583.78;;;6.85;60.23
43155;BME280;34212;51.018;13.586;2024-03-08T20:21:14;97579.28;;;6.78;60.22
43155;BME280;34212;51.018;13.586;2024-03-08T20:26:15;97579.25;;;6.69;60.06
43155;BME280;34212;51.018;13.586;2024-03-08T20:31:17;97585.19;;;6.63;60.13
43155;BME280;34212;51.018;13.586;2024-03-08T20:36:19;97582.53;;;6.55;60.28
43155;BME280;34212;51.018;13.586;2024-03-08T20:41:20;97574.53;;;6.47;59.85
43155;BME280;34212;51.018;13.586;2024-03-08T20:46:23;97564.56;;;6.41;60.32
43155;BME280;34212;51.018;13.586;2024-03-08T20:51:24;97566.72;;;6.37;60.09
43155;BME280;34212;51.018;13.586;2024-03-08T20:56:26;97562.06;;;6.31;60.12
43155;BME280;34212;51.018;13.586;2024-03-08T21:01:28;97558.38;;;6.24;60.27
43155;BME280;34212;51.018;13.586;2024-03-08T21:06:32;97551.22;;;6.16;60.75
43155;BME280;34212;51.018;13.586;2024-03-08T21:11:36;97548.38;;;6.10;60.05
43155;BME280;34212;51.018;13.586;2024-03-08T21:16:38;97544.41;;;6.06;60.43
43155;BME280;34212;51.018;13.586;2024-03-08T21:21:40;97536.75;;;6.03;60.44
43155;BME280;34212;51.018;13.586;2024-03-08T21:26:42;97535.56;;;5.97;60.55
43155;BME280;34212;51.018;13.586;2024-03-08T21:31:44;97528.09;;;5.92;60.67
43155;BME280;34212;51.018;13.586;2024-03-08T21:36:45;97519.78;;;5.87;60.67
43155;BME280;34212;51.018;13.586;2024-03-08T21:41:47;97513.16;;;5.83;60.71
43155;BME280;34212;51.018;13.586;2024-03-08T21:46:49;97505.34;;;5.82;60.74
43155;BME280;34212;51.018;13.586;2024-03-08T21:51:51;97500.38;;;5.78;60.76
43155;BME280;34212;51.018;13.586;2024-03-08T21:56:53;97494.56;;;5.75;61.10
43155;BME280;34212;51.018;13.586;2024-03-08T22:01:55;97489.59;;;5.72;61.06
43155;BME280;34212;51.018;13.586;2024-03-08T22:06:56;97484.63;;;5.69;61.08
43155;BME280;34212;51.018;13.586;2024-03-08T22:11:59;97471.38;;;5.69;61.01
43155;BME280;34212;51.018;13.586;2024-03-08T22:17:00;97476.00;;;5.67;61.36
43155;BME280;34212;51.018;13.586;2024-03-08T22:22:02;97468.06;;;5.67;61.07
43155;BME280;34212;51.018;13.586;2024-03-08T22:27:04;97461.13;;;5.66;61.34
43155;BME280;34212;51.018;13.586;2024-03-08T22:32:06;97462.25;;;5.63;61.17
43155;BME280;34212;51.018;13.586;2024-03-08T22:37:09;97464.25;;;5.61;61.41
43155;BME280;34212;51.018;13.586;2024-03-08T22:42:10;97459.91;;;5.60;61.38
43155;BME280;34212;51.018;13.586;2024-03-08T22:47:12;97450.47;;;5.57;61.75
43155;BME280;34212;51.018;13.586;2024-03-08T22:52:14;97439.38;;;5.54;61.71
43155;BME280;34212;51.018;13.586;2024-03-08T22:57:16;97435.91;;;5.53;61.90
43155;BME280;34212;51.018;13.586;2024-03-08T23:02:19;97437.22;;;5.49;61.68
43155;BME280;34212;51.018;13.586;2024-03-08T23:07:21;97425.13;;;5.47;62.08
43155;BME280;34212;51.018;13.586;2024-03-08T23:12:25;97425.31;;;5.45;61.92
43155;BME280;34212;51.018;13.586;2024-03-08T23:17:29;97414.03;;;5.43;61.81
43155;BME280;34212;51.018;13.586;2024-03-08T23:22:33;97414.19;;;5.42;62.09
43155;BME280;34212;51.018;13.586;2024-03-08T23:27:34;97418.66;;;5.41;62.07
43155;BME280;34212;51.018;13.586;2024-03-08T23:32:36;97418.66;;;5.41;62.20
43155;BME280;34212;51.018;13.586;2024-03-08T23:37:41;97405.59;;;5.40;62.46
43155;BME280;34212;51.018;13.586;2024-03-08T23:42:49;97395.34;;;5.37;62.07
43155;BME280;34212;51.018;13.586;2024-03-08T23:47:54;97408.38;;;5.38;62.17
43155;BME280;34212;51.018;13.586;2024-03-08T23:52:57;97398.13;;;5.35;62.11
43155;BME280;34212;51.018;13.586;2024-03-08T23:58:05;97402.59;;;5.35;62.44
